createdAt,value
2018-04-02T00:02:14.304Z,82.58
2018-04-02T00:04:41.875Z,81.86
2018-04-02T00:07:10.397Z,81.75
2018-04-02T00:09:37.940Z,81.65
2018-04-02T00:12:05.484Z,81.80
2018-04-02T00:14:33.057Z,82.29
2018-04-02T00:17:00.639Z,82.44
2018-04-02T00:19:28.583Z,82.29
2018-04-02T00:21:56.140Z,82.51
2018-04-02T00:24:23.690Z,83.48
2018-04-02T00:26:51.253Z,83.47
2018-04-02T00:29:18.998Z,84.00
2018-04-02T00:31:46.541Z,84.18
2018-04-02T00:34:14.108Z,84.36
2018-04-02T00:36:41.685Z,84.81
2018-04-02T00:39:10.331Z,84.90
2018-04-02T00:41:38.531Z,85.03
2018-04-02T00:44:06.219Z,85.45
2018-04-02T00:46:33.786Z,85.71
2018-04-02T00:49:01.368Z,84.90
2018-04-02T00:51:28.917Z,85.70
2018-04-02T00:53:56.485Z,85.87
2018-04-02T00:56:24.038Z,86.06
2018-04-02T00:58:51.611Z,86.12
2018-04-02T01:01:19.198Z,85.99
2018-04-02T01:03:46.728Z,86.73
2018-04-02T01:06:14.286Z,87.38
2018-04-02T01:08:41.834Z,88.02
2018-04-02T01:11:09.759Z,88.62
2018-04-02T01:13:37.450Z,89.12
2018-04-02T01:16:05.018Z,89.39
2018-04-02T01:18:32.564Z,89.78
2018-04-02T01:21:00.173Z,90.04
2018-04-02T01:23:27.729Z,90.34
2018-04-02T01:25:55.295Z,90.01
2018-04-02T01:28:22.879Z,90.24
2018-04-02T01:30:50.420Z,90.52
2018-04-02T01:33:17.963Z,90.98
2018-04-02T01:35:45.527Z,91.23
2018-04-02T01:38:13.091Z,90.58
2018-04-02T01:40:40.629Z,91.07
2018-04-02T01:43:08.747Z,90.86
2018-04-02T01:45:36.870Z,91.27
2018-04-02T01:48:04.365Z,91.38
2018-04-02T01:50:32.647Z,91.58
2018-04-02T01:53:00.142Z,91.83
2018-04-02T01:55:28.446Z,91.99
2018-04-02T01:57:56.041Z,92.09
2018-04-02T02:00:23.607Z,92.29
2018-04-02T02:02:51.184Z,92.65
2018-04-02T02:05:20.287Z,92.58
2018-04-02T02:07:47.814Z,92.34
2018-04-02T02:10:15.392Z,92.36
2018-04-02T02:12:42.966Z,92.40
2018-04-02T02:15:15.434Z,92.19
2018-04-02T02:17:43.485Z,92.48
2018-04-02T02:20:12.519Z,92.11
2018-04-02T02:22:40.090Z,91.67
2018-04-02T02:25:11.224Z,92.25
2018-04-02T02:27:38.996Z,92.08
2018-04-02T02:30:06.549Z,92.04
2018-04-02T02:32:34.092Z,92.41
2018-04-02T02:35:01.666Z,92.51
2018-04-02T02:37:30.126Z,92.27
2018-04-02T02:39:57.698Z,91.99
2018-04-02T02:42:29.167Z,91.93
2018-04-02T02:45:00.457Z,92.04
2018-04-02T02:47:31.454Z,92.18
2018-04-02T02:49:59.120Z,90.76
2018-04-02T02:52:26.699Z,90.81
2018-04-02T02:54:54.333Z,90.18
2018-04-02T02:57:23.769Z,90.41
2018-04-02T02:59:51.409Z,90.43
2018-04-02T03:02:19.092Z,90.32
2018-04-02T03:04:47.537Z,90.19
2018-04-02T03:07:15.309Z,89.21
2018-04-02T03:09:42.935Z,88.24
2018-04-02T03:12:10.617Z,86.99
2018-04-02T03:14:38.200Z,86.51
2018-04-02T03:17:06.994Z,86.06
2018-04-02T03:19:34.983Z,86.46
2018-04-02T03:22:02.555Z,85.95
2018-04-02T03:24:30.126Z,86.06
2018-04-02T03:26:57.707Z,85.30
2018-04-02T03:29:25.355Z,85.07
2018-04-02T03:31:52.999Z,85.18
2018-04-02T03:34:20.538Z,85.45
2018-04-02T03:36:48.111Z,84.72
2018-04-02T03:39:15.899Z,84.71
2018-04-02T03:41:43.446Z,84.64
2018-04-02T03:44:11.254Z,84.49
2018-04-02T03:46:39.058Z,84.48
2018-04-02T03:49:07.076Z,84.11
2018-04-02T03:51:35.276Z,83.96
2018-04-02T03:54:02.972Z,83.84
2018-04-02T03:56:30.545Z,83.56
2018-04-02T03:58:58.153Z,83.22
2018-04-02T04:01:25.724Z,82.75
2018-04-02T04:03:53.544Z,82.10
2018-04-02T04:06:21.107Z,81.91
2018-04-02T04:08:48.686Z,81.76
2018-04-02T04:11:16.522Z,81.48
2018-04-02T04:13:44.122Z,81.56
2018-04-02T04:16:11.817Z,81.44
2018-04-02T04:18:39.370Z,81.56
2018-04-02T04:21:07.294Z,81.66
2018-04-02T04:23:35.442Z,81.89
2018-04-02T04:26:03.092Z,81.94
2018-04-02T04:28:30.637Z,82.61
2018-04-02T04:30:58.188Z,82.65
2018-04-02T04:33:25.859Z,82.16
2018-04-02T04:35:53.468Z,82.42
2018-04-02T04:38:21.105Z,81.86
2018-04-02T04:40:48.904Z,82.23
2018-04-02T04:43:17.213Z,82.14
2018-04-02T04:45:44.826Z,81.97
2018-04-02T04:48:12.600Z,82.18
2018-04-02T04:50:40.153Z,81.71
2018-04-02T04:53:07.680Z,81.80
2018-04-02T04:55:36.000Z,81.95
2018-04-02T04:58:03.801Z,81.96
2018-04-02T05:00:32.908Z,82.21
2018-04-02T05:03:00.477Z,82.53
2018-04-02T05:05:28.047Z,82.38
2018-04-02T05:07:55.664Z,81.88
2018-04-02T05:10:23.471Z,81.77
2018-04-02T05:12:51.086Z,81.75
2018-04-02T05:15:19.061Z,81.58
2018-04-02T05:17:46.760Z,81.85
2018-04-02T05:20:14.414Z,81.33
2018-04-02T05:22:42.028Z,80.92
2018-04-02T05:25:10.210Z,80.90
2018-04-02T05:30:27.862Z,81.12
2018-04-02T05:32:55.408Z,80.96
2018-04-02T05:35:23.083Z,80.91
2018-04-02T05:37:52.158Z,81.12
2018-04-02T05:40:19.723Z,80.97
2018-04-02T05:42:47.331Z,80.85
2018-04-02T05:45:15.330Z,81.01
2018-04-02T05:47:43.113Z,81.90
2018-04-02T05:50:22.391Z,81.02
2018-04-02T05:52:49.951Z,80.46
2018-04-02T05:55:17.966Z,80.87
2018-04-02T05:57:45.568Z,80.49
2018-04-02T06:00:13.337Z,80.10
2018-04-02T06:02:40.942Z,79.94
2018-04-02T06:05:08.909Z,77.96
2018-04-02T06:07:36.558Z,77.66
2018-04-02T06:10:04.171Z,76.83
2018-04-02T06:12:34.381Z,76.17
2018-04-02T06:15:04.014Z,76.12
2018-04-02T06:17:31.667Z,76.77
2018-04-02T06:20:02.670Z,76.84
2018-04-02T06:22:31.599Z,76.39
2018-04-02T06:25:01.184Z,78.06
2018-04-02T06:27:29.483Z,77.26
2018-04-02T06:29:58.839Z,78.25
2018-04-02T06:32:31.704Z,79.56
2018-04-02T06:35:06.420Z,80.66
2018-04-02T06:37:34.511Z,80.76
2018-04-02T06:40:02.468Z,82.00
2018-04-02T06:42:31.354Z,81.14
2018-04-02T06:44:59.636Z,80.78
2018-04-02T06:47:31.340Z,81.62
2018-04-02T06:49:58.918Z,81.40
2018-04-02T06:52:27.558Z,81.17
2018-04-02T06:54:59.466Z,81.08
2018-04-02T06:57:27.348Z,79.60
2018-04-02T06:59:55.470Z,78.15
2018-04-02T07:02:23.492Z,79.20
2018-04-02T07:04:51.096Z,79.21
2018-04-02T07:07:20.115Z,79.05
2018-04-02T07:09:47.785Z,77.95
2018-04-02T07:12:15.402Z,78.15
2018-04-02T07:14:42.984Z,77.39
2018-04-02T07:17:11.435Z,76.81
2018-04-02T07:19:39.042Z,75.66
2018-04-02T07:22:06.602Z,75.85
2018-04-02T07:24:34.267Z,75.11
2018-04-02T07:27:02.011Z,74.81
2018-04-02T07:29:29.968Z,73.55
2018-04-02T07:31:57.618Z,73.48
2018-04-02T07:34:27.017Z,74.78
2018-04-02T07:36:54.881Z,72.02
2018-04-02T07:39:22.981Z,73.38
2018-04-02T07:41:50.690Z,70.50
2018-04-02T07:44:18.522Z,72.65
2018-04-02T07:46:46.070Z,72.58
2018-04-02T07:49:15.845Z,70.68
2018-04-02T07:51:43.688Z,71.68
2018-04-02T07:54:12.724Z,71.24
2018-04-02T07:56:40.291Z,72.19
2018-04-02T07:59:08.105Z,70.60
2018-04-02T08:01:35.716Z,70.91
2018-04-02T08:04:03.580Z,70.39
2018-04-02T08:06:31.269Z,70.89
2018-04-02T08:08:59.197Z,70.32
2018-04-02T08:11:26.867Z,70.58
2018-04-02T08:13:54.539Z,70.97
2018-04-02T08:16:23.900Z,68.91
2018-04-02T08:18:51.457Z,69.04
2018-04-02T08:21:19.397Z,66.83
2018-04-02T08:23:47.024Z,66.89
2018-04-02T08:26:14.680Z,66.05
2018-04-02T08:28:42.315Z,64.92
2018-04-02T08:31:11.070Z,65.74
2018-04-02T08:33:39.030Z,68.02
2018-04-02T08:36:06.707Z,66.60
2018-04-02T08:38:34.348Z,64.31
2018-04-02T08:41:02.217Z,66.17
2018-04-02T08:43:30.377Z,65.35
2018-04-02T08:45:57.951Z,64.62
2018-04-02T08:48:26.448Z,62.78
2018-04-02T08:50:53.997Z,64.21
2018-04-02T08:53:21.599Z,66.25
2018-04-02T08:55:49.183Z,65.05
2018-04-02T08:58:16.751Z,62.21
2018-04-02T09:00:44.379Z,61.44
2018-04-02T09:03:12.824Z,62.14
2018-04-02T09:05:40.418Z,62.24
2018-04-02T09:08:08.033Z,62.29
2018-04-02T09:10:36.844Z,60.19
2018-04-02T09:13:04.682Z,57.68
2018-04-02T09:15:32.278Z,58.07
2018-04-02T09:17:59.897Z,57.24
2018-04-02T09:20:27.458Z,59.94
2018-04-02T09:22:55.216Z,58.14
2018-04-02T09:25:23.211Z,57.47
2018-04-02T09:27:50.812Z,58.39
2018-04-02T09:30:18.695Z,59.13
2018-04-02T09:32:46.280Z,58.96
2018-04-02T09:35:14.329Z,60.78
2018-04-02T09:37:41.965Z,58.87
2018-04-02T09:40:09.553Z,58.88
2018-04-02T09:42:37.226Z,59.82
2018-04-02T09:45:05.294Z,61.44
2018-04-02T09:47:32.897Z,60.63
2018-04-02T09:50:00.775Z,60.31
2018-04-02T09:52:28.406Z,60.77
2018-04-02T09:54:56.008Z,59.45
2018-04-02T09:57:23.916Z,59.78
2018-04-02T09:59:51.522Z,60.17
2018-04-02T10:02:22.135Z,61.97
2018-04-02T10:04:49.877Z,61.78
2018-04-02T10:07:17.482Z,60.48
2018-04-02T10:09:45.094Z,58.98
2018-04-02T10:15:04.943Z,56.43
2018-04-02T10:17:34.415Z,56.59
2018-04-02T10:20:06.412Z,54.49
2018-04-02T10:22:34.089Z,55.95
2018-04-02T10:27:56.146Z,52.79
2018-04-02T10:30:23.760Z,52.75
2018-04-02T10:32:57.239Z,55.02
2018-04-02T10:35:28.797Z,52.52
2018-04-02T10:37:58.061Z,55.84
2018-04-02T10:40:25.931Z,55.31
2018-04-02T10:42:53.576Z,57.27
2018-04-02T10:45:21.405Z,56.43
2018-04-02T10:47:51.503Z,59.03
2018-04-02T10:50:19.104Z,58.42
2018-04-02T10:52:49.189Z,56.86
2018-04-02T10:55:16.903Z,55.63
2018-04-02T10:57:47.304Z,56.00
2018-04-02T11:00:19.083Z,55.51
2018-04-02T11:02:46.675Z,56.63
2018-04-02T11:05:14.598Z,55.80
2018-04-02T11:07:42.233Z,57.45
2018-04-02T11:10:09.952Z,55.85
2018-04-02T11:12:37.546Z,56.75
2018-04-02T11:15:05.328Z,54.93
2018-04-02T11:17:34.262Z,55.31
2018-04-02T11:20:01.872Z,52.30
2018-04-02T11:22:29.488Z,51.25
2018-04-02T11:24:57.083Z,50.77
2018-04-02T11:27:24.671Z,54.32
2018-04-02T11:29:52.338Z,50.38
2018-04-02T11:32:19.921Z,51.30
2018-04-02T11:34:47.494Z,51.01
2018-04-02T11:37:15.122Z,48.34
2018-04-02T11:39:42.671Z,51.22
2018-04-02T11:42:10.271Z,48.35
2018-04-02T11:44:37.879Z,47.48
2018-04-02T11:47:05.487Z,48.51
2018-04-02T11:49:33.082Z,46.34
2018-04-02T11:52:00.725Z,45.11
2018-04-02T11:54:28.303Z,41.93
2018-04-02T11:56:55.898Z,41.90
2018-04-02T11:59:23.549Z,40.03
2018-04-02T12:01:51.165Z,38.30
2018-04-02T12:04:18.749Z,37.83
2018-04-02T12:06:46.960Z,36.47
2018-04-02T12:09:14.674Z,39.40
2018-04-02T12:11:42.274Z,37.27
2018-04-02T12:14:09.906Z,36.97
2018-04-02T12:16:38.363Z,38.19
2018-04-02T12:19:05.917Z,35.97
2018-04-02T12:21:34.055Z,35.87
2018-04-02T12:24:01.637Z,37.79
2018-04-02T12:26:29.244Z,38.54
2018-04-02T12:28:56.817Z,35.41
2018-04-02T12:31:26.951Z,34.00
2018-04-02T12:33:54.548Z,34.89
2018-04-02T12:36:22.365Z,34.75
2018-04-02T12:38:50.318Z,32.10
2018-04-02T12:41:18.360Z,31.03
2018-04-02T12:43:45.966Z,31.63
2018-04-02T12:46:14.316Z,32.56
2018-04-02T12:48:42.362Z,32.98
2018-04-02T12:51:10.861Z,30.73
2018-04-02T12:53:38.840Z,30.06
2018-04-02T12:56:06.427Z,30.67
2018-04-02T12:58:34.011Z,30.15
2018-04-02T13:01:01.588Z,30.57
2018-04-02T13:03:29.804Z,30.82
2018-04-02T13:05:57.397Z,30.84
2018-04-02T13:08:24.994Z,29.64
2018-04-02T13:10:52.606Z,31.50
2018-04-02T13:13:20.661Z,30.23
2018-04-02T13:15:48.317Z,30.43
2018-04-02T13:18:16.748Z,30.82
2018-04-02T13:20:44.320Z,30.88
2018-04-02T13:23:12.005Z,30.54
2018-04-02T13:25:43.533Z,31.05
2018-04-02T13:28:11.135Z,30.18
2018-04-02T13:30:38.757Z,32.19
2018-04-02T13:33:06.477Z,28.89
2018-04-02T13:35:34.194Z,29.32
2018-04-02T13:38:01.847Z,31.54
2018-04-02T13:40:29.448Z,30.25
2018-04-02T13:43:00.650Z,27.94
2018-04-02T13:45:28.291Z,29.84
2018-04-02T13:47:55.868Z,30.29
2018-04-02T13:50:23.503Z,29.28
2018-04-02T13:52:51.083Z,29.01
2018-04-02T13:55:18.705Z,28.76
2018-04-02T13:57:46.409Z,28.21
2018-04-02T14:00:13.988Z,28.98
2018-04-02T14:02:41.567Z,30.67
2018-04-02T14:05:09.245Z,30.07
2018-04-02T14:07:38.572Z,29.89
2018-04-02T14:10:06.821Z,29.84
2018-04-02T14:12:34.581Z,29.31
2018-04-02T14:15:03.540Z,29.23
2018-04-02T14:17:31.772Z,28.17
2018-04-02T14:20:01.457Z,30.46
2018-04-02T14:22:29.114Z,29.74
2018-04-02T14:24:56.684Z,28.82
2018-04-02T14:27:24.325Z,28.76
2018-04-02T14:29:52.124Z,30.10
2018-04-02T14:32:21.272Z,29.33
2018-04-02T14:34:49.525Z,27.90
2018-04-02T14:37:17.886Z,28.25
2018-04-02T14:39:46.945Z,29.21
2018-04-02T14:42:17.441Z,28.33
2018-04-02T14:44:45.416Z,29.75
2018-04-02T14:47:13.077Z,27.96
2018-04-02T14:49:43.361Z,28.63
2018-04-02T14:52:13.289Z,28.73
2018-04-02T14:54:43.020Z,29.67
2018-04-02T14:57:11.057Z,28.54
2018-04-02T14:59:38.875Z,29.13
2018-04-02T15:02:06.491Z,29.12
2018-04-02T15:04:34.102Z,31.00
2018-04-02T15:07:01.680Z,29.96
2018-04-02T15:09:29.311Z,29.32
2018-04-02T15:11:56.927Z,28.83
2018-04-02T15:14:24.552Z,30.13
2018-04-02T15:16:52.119Z,29.46
2018-04-02T15:19:19.757Z,29.70
2018-04-02T15:21:47.341Z,29.47
2018-04-02T15:24:14.946Z,29.02
2018-04-02T15:26:42.817Z,29.25
2018-04-02T15:29:10.974Z,28.70
2018-04-02T15:31:38.545Z,29.15
2018-04-02T15:34:06.164Z,29.56
2018-04-02T15:36:33.800Z,28.77
2018-04-02T15:39:01.426Z,28.67
2018-04-02T15:41:29.028Z,27.86
2018-04-02T15:43:56.599Z,30.22
2018-04-02T15:46:25.094Z,30.01
2018-04-02T15:48:52.697Z,30.35
2018-04-02T15:51:20.389Z,28.74
2018-04-02T15:53:48.384Z,29.31
2018-04-02T15:56:16.008Z,30.46
2018-04-02T15:58:43.698Z,29.84
2018-04-02T16:01:11.295Z,31.36
2018-04-02T16:03:38.915Z,30.72
2018-04-02T16:06:06.610Z,31.73
2018-04-02T16:08:34.304Z,30.70
2018-04-02T16:11:01.926Z,28.66
2018-04-02T16:13:29.666Z,29.00
2018-04-02T16:15:57.291Z,37.11
2018-04-02T16:18:25.240Z,40.35
2018-04-02T16:20:52.820Z,39.99
2018-04-02T16:23:21.498Z,41.40
2018-04-02T16:25:50.001Z,42.35
2018-04-02T16:28:17.618Z,44.28
2018-04-02T16:30:45.218Z,46.16
2018-04-02T16:33:13.732Z,46.44
2018-04-02T16:35:41.381Z,47.43
2018-04-02T16:38:09.280Z,49.43
2018-04-02T16:40:37.986Z,50.82
2018-04-02T16:43:05.604Z,52.67
2018-04-02T16:45:33.321Z,53.71
2018-04-02T16:48:00.980Z,54.33
2018-04-02T16:50:28.583Z,55.46
2018-04-02T16:52:56.181Z,56.46
2018-04-02T16:55:24.694Z,58.06
2018-04-02T16:57:52.290Z,60.48
2018-04-02T17:00:19.892Z,60.00
2018-04-02T17:02:47.520Z,60.07
2018-04-02T17:05:15.567Z,60.17
2018-04-02T17:07:43.626Z,61.76
2018-04-02T17:10:12.385Z,62.08
2018-04-02T17:12:40.029Z,61.37
2018-04-02T17:15:08.310Z,61.80
2018-04-02T17:17:37.012Z,62.50
2018-04-02T17:20:04.634Z,63.64
2018-04-02T17:22:32.270Z,64.94
2018-04-02T17:24:59.863Z,66.53
2018-04-02T17:27:29.082Z,66.34
2018-04-02T17:29:56.728Z,66.57
2018-04-02T17:32:25.263Z,67.62
2018-04-02T17:34:53.240Z,68.29
2018-04-02T17:37:21.404Z,68.27
2018-04-02T17:39:48.975Z,69.14
2018-04-02T17:42:16.549Z,68.94
2018-04-02T17:44:44.130Z,68.99
2018-04-02T17:47:12.268Z,68.84
2018-04-02T17:49:39.860Z,68.66
2018-04-02T17:52:07.462Z,67.87
2018-04-02T17:54:35.062Z,68.23
2018-04-02T17:57:02.636Z,68.49
2018-04-02T17:59:30.257Z,68.90
2018-04-02T18:01:58.637Z,69.24
2018-04-02T18:04:26.595Z,68.94
2018-04-02T18:06:54.624Z,69.59
2018-04-02T18:09:23.258Z,69.76
2018-04-02T18:11:50.834Z,69.20
2018-04-02T18:14:18.723Z,69.52
2018-04-02T18:16:46.395Z,69.47
2018-04-02T18:19:14.094Z,69.60
2018-04-02T18:21:41.684Z,69.40
2018-04-02T18:24:09.984Z,70.12
2018-04-02T18:26:37.600Z,69.88
2018-04-02T18:29:05.153Z,69.72
2018-04-02T18:31:32.794Z,69.77
2018-04-02T18:34:00.351Z,69.70
2018-04-02T18:36:28.615Z,69.93
2018-04-02T18:38:56.479Z,70.01
2018-04-02T18:41:24.188Z,70.04
2018-04-02T18:43:51.850Z,70.41
2018-04-02T18:46:19.404Z,70.36
2018-04-02T18:48:46.951Z,70.43
2018-04-02T18:51:15.027Z,71.72
2018-04-02T18:53:42.676Z,72.71
2018-04-02T18:56:10.375Z,72.94
2018-04-02T18:58:38.267Z,73.69
2018-04-02T19:01:05.843Z,72.52
2018-04-02T19:03:33.440Z,71.25
2018-04-02T19:06:00.964Z,72.01
2018-04-02T19:08:28.542Z,72.54
2018-04-02T19:10:56.119Z,72.47
2018-04-02T19:13:24.067Z,71.90
2018-04-02T19:15:51.728Z,71.89
2018-04-02T19:18:19.298Z,71.59
2018-04-02T19:20:46.855Z,71.71
2018-04-02T19:23:14.798Z,72.11
2018-04-02T19:25:42.565Z,71.63
2018-04-02T19:28:10.225Z,71.49
2018-04-02T19:30:37.800Z,71.08
2018-04-02T19:33:05.624Z,71.27
2018-04-02T19:35:33.542Z,71.41
2018-04-02T19:38:01.428Z,72.32
2018-04-02T19:40:29.219Z,71.85
2018-04-02T19:42:56.794Z,71.09
2018-04-02T19:45:24.440Z,71.65
2018-04-02T19:47:52.150Z,70.66
2018-04-02T19:50:19.724Z,70.75
2018-04-02T19:52:47.310Z,74.66
2018-04-02T19:55:15.005Z,74.60
2018-04-02T19:57:42.657Z,75.09
2018-04-02T20:00:10.278Z,75.17
2018-04-02T20:02:37.871Z,74.78
2018-04-02T20:05:05.768Z,74.51
2018-04-02T20:07:33.551Z,74.37
2018-04-02T20:10:01.111Z,72.92
2018-04-02T20:12:28.666Z,72.29
2018-04-02T20:14:56.276Z,72.64
2018-04-02T20:17:23.840Z,72.26
2018-04-02T20:19:51.645Z,73.02
2018-04-02T20:22:19.438Z,72.37
2018-04-02T20:24:46.989Z,72.12
2018-04-02T20:27:14.570Z,72.31
2018-04-02T20:29:42.148Z,72.14
2018-04-02T20:32:09.830Z,71.61
2018-04-02T20:34:37.384Z,71.28
2018-04-02T20:37:05.139Z,71.38
2018-04-02T20:39:33.069Z,71.37
2018-04-02T20:42:00.634Z,70.90
2018-04-02T20:44:28.429Z,71.02
2018-04-02T20:46:55.979Z,71.25
2018-04-02T20:49:23.523Z,71.25
2018-04-02T20:51:51.125Z,71.38
2018-04-02T20:54:18.693Z,71.88
2018-04-02T20:56:46.192Z,72.23
2018-04-02T20:59:14.716Z,71.90
2018-04-02T21:01:42.263Z,71.52
2018-04-02T21:04:10.235Z,72.03
2018-04-02T21:06:37.838Z,72.29
2018-04-02T21:09:07.693Z,72.27
2018-04-02T21:11:35.949Z,71.87
2018-04-02T21:14:03.621Z,71.77
2018-04-02T21:16:31.167Z,72.22
2018-04-02T21:18:59.665Z,72.87
2018-04-02T21:21:27.237Z,73.64
2018-04-02T21:23:54.792Z,74.18
2018-04-02T21:26:22.370Z,72.71
2018-04-02T21:28:49.932Z,72.47
2018-04-02T21:31:17.480Z,72.46
2018-04-02T21:33:45.041Z,72.41
2018-04-02T21:36:12.597Z,72.85
2018-04-02T21:38:40.142Z,72.54
2018-04-02T21:41:07.777Z,72.67
2018-04-02T21:43:35.317Z,72.38
2018-04-02T21:46:02.870Z,73.00
2018-04-02T21:48:30.414Z,72.78
2018-04-02T21:50:57.976Z,72.85
2018-04-02T21:53:25.728Z,73.00
2018-04-02T21:55:53.278Z,73.53
2018-04-02T21:58:20.829Z,73.72
2018-04-02T22:00:48.377Z,73.58
2018-04-02T22:03:15.979Z,73.37
2018-04-02T22:05:43.576Z,73.46
2018-04-02T22:08:11.233Z,73.92
2018-04-02T22:10:38.817Z,75.02
2018-04-02T22:13:06.795Z,76.66
2018-04-02T22:15:34.355Z,76.63
2018-04-02T22:18:01.905Z,76.56
2018-04-02T22:20:29.917Z,76.52
2018-04-02T22:22:57.465Z,76.60
2018-04-02T22:25:25.140Z,76.61
2018-04-02T22:27:52.721Z,76.45
2018-04-02T22:30:20.312Z,76.41
2018-04-02T22:32:47.907Z,76.83
2018-04-02T22:35:15.690Z,78.58
2018-04-02T22:37:43.653Z,78.79
2018-04-02T22:40:11.257Z,77.92
2018-04-02T22:42:40.220Z,78.15
2018-04-02T22:45:08.666Z,77.25
2018-04-02T22:47:36.260Z,76.06
2018-04-02T22:50:03.838Z,75.57
2018-04-02T22:52:31.391Z,76.99
2018-04-02T22:54:58.950Z,77.64
2018-04-02T22:57:26.535Z,78.11
2018-04-02T22:59:54.072Z,77.78
2018-04-02T23:02:21.651Z,77.56
2018-04-02T23:04:49.199Z,77.11
2018-04-02T23:07:16.795Z,76.45
2018-04-02T23:09:44.348Z,76.00
2018-04-02T23:12:11.876Z,76.54
2018-04-02T23:14:39.429Z,76.50
2018-04-02T23:17:07.080Z,76.56
2018-04-02T23:19:34.686Z,77.18
2018-04-02T23:22:02.241Z,77.43
2018-04-02T23:24:29.799Z,77.07
2018-04-02T23:26:57.358Z,77.61
2018-04-02T23:29:24.894Z,78.15
2018-04-02T23:31:52.426Z,78.28
2018-04-02T23:34:19.984Z,78.05
2018-04-02T23:36:47.531Z,78.06
2018-04-02T23:39:24.026Z,77.81
2018-04-02T23:41:51.604Z,77.68
2018-04-02T23:44:19.162Z,77.86
2018-04-02T23:46:46.715Z,77.76
2018-04-02T23:49:14.264Z,78.24
2018-04-02T23:51:41.811Z,77.16
2018-04-02T23:54:09.423Z,75.15
2018-04-02T23:56:36.968Z,73.90
2018-04-02T23:59:04.535Z,72.88
